createdAt,value
2023-02-16T00:01:27.995Z,14.03
2023-02-16T00:03:56.019Z,15.10
2023-02-16T00:06:23.913Z,14.20
2023-02-16T00:08:52.996Z,13.37
2023-02-16T00:12:05.061Z,14.23
2023-02-16T00:14:34.892Z,14.23
2023-02-16T00:17:01.900Z,14.20
2023-02-16T00:19:31.240Z,14.70
2023-02-16T00:21:59.882Z,14.77
2023-02-16T00:24:28.326Z,14.73
2023-02-16T00:26:55.790Z,16.23
2023-02-16T00:29:26.997Z,14.67
2023-02-16T00:31:55.295Z,14.90
2023-02-16T00:34:40.213Z,15.07
2023-02-16T00:37:09.188Z,13.60
2023-02-16T00:39:37.001Z,13.77
2023-02-16T00:42:13.393Z,14.50
2023-02-16T00:44:45.944Z,14.70
2023-02-16T00:47:20.583Z,15.17
2023-02-16T00:49:49.559Z,15.30
2023-02-16T00:52:37.521Z,15.07
2023-02-16T00:55:10.009Z,15.50
2023-02-16T00:57:40.673Z,14.90
2023-02-16T01:00:30.024Z,15.20
2023-02-16T01:02:59.966Z,15.40
2023-02-16T01:05:27.697Z,14.73
2023-02-16T01:08:13.396Z,15.23
2023-02-16T01:10:59.041Z,15.30
2023-02-16T01:13:28.356Z,15.13
2023-02-16T01:15:55.232Z,15.50
2023-02-16T01:18:22.161Z,15.40
2023-02-16T01:20:51.134Z,15.10
2023-02-16T01:23:17.725Z,15.13
2023-02-16T01:25:44.490Z,15.83
2023-02-16T01:28:21.096Z,16.10
2023-02-16T01:30:49.245Z,18.30
2023-02-16T01:33:16.008Z,16.67
2023-02-16T01:35:42.812Z,17.07
2023-02-16T01:38:21.014Z,18.97
2023-02-16T01:41:22.557Z,18.93
2023-02-16T01:43:55.061Z,17.20
2023-02-16T01:46:48.074Z,17.70
2023-02-16T01:49:16.164Z,17.93
2023-02-16T01:51:49.265Z,17.87
2023-02-16T01:54:38.803Z,18.77
2023-02-16T01:57:20.990Z,17.23
2023-02-16T01:59:47.549Z,17.20
2023-02-16T02:02:23.903Z,16.53
2023-02-16T02:05:13.468Z,18.87
2023-02-16T02:08:06.052Z,18.03
2023-02-16T02:11:03.245Z,19.97
2023-02-16T02:13:53.001Z,18.27
2023-02-16T02:16:24.043Z,18.30
2023-02-16T02:18:50.805Z,19.53
2023-02-16T02:22:15.477Z,20.97
2023-02-16T02:25:16.692Z,19.10
2023-02-16T02:28:01.104Z,18.07
2023-02-16T02:30:46.455Z,20.07
2023-02-16T02:33:32.459Z,19.90
2023-02-16T02:36:19.806Z,19.10
2023-02-16T02:39:20.664Z,19.37
2023-02-16T02:42:06.292Z,19.70
2023-02-16T02:44:46.157Z,20.20
2023-02-16T02:47:12.946Z,20.07
2023-02-16T02:49:39.700Z,22.53
2023-02-16T02:52:09.393Z,20.67
2023-02-16T02:54:59.262Z,19.63
2023-02-16T02:58:01.868Z,24.33
2023-02-16T03:00:41.419Z,22.07
2023-02-16T03:03:32.280Z,20.73
2023-02-16T03:06:15.292Z,22.07
2023-02-16T03:08:44.618Z,23.30
2023-02-16T03:11:35.576Z,24.43
2023-02-16T03:14:06.637Z,23.33
2023-02-16T03:16:42.568Z,21.13
2023-02-16T03:19:30.535Z,21.93
2023-02-16T03:22:16.494Z,22.70
2023-02-16T03:25:02.081Z,24.77
2023-02-16T03:27:56.789Z,21.40
2023-02-16T03:30:25.532Z,19.27
2023-02-16T03:32:52.894Z,21.23
2023-02-16T03:35:20.051Z,22.07
2023-02-16T03:37:47.527Z,21.70
2023-02-16T03:40:28.221Z,21.80
2023-02-16T03:43:01.801Z,22.20
2023-02-16T03:45:29.283Z,20.40
2023-02-16T03:47:56.054Z,21.37
2023-02-16T03:50:22.832Z,21.67
2023-02-16T03:52:49.709Z,21.50
2023-02-16T03:55:16.443Z,21.77
2023-02-16T03:57:43.097Z,20.70
2023-02-16T04:00:10.853Z,22.53
2023-02-16T04:02:40.349Z,22.27
2023-02-16T04:05:07.127Z,21.67
2023-02-16T04:07:33.704Z,22.13
2023-02-16T04:10:00.310Z,24.37
2023-02-16T04:12:36.113Z,24.53
2023-02-16T04:15:05.340Z,23.50
2023-02-16T04:17:32.058Z,24.60
2023-02-16T04:19:58.674Z,24.53
2023-02-16T04:22:25.377Z,25.33
2023-02-16T04:24:52.001Z,25.53
2023-02-16T04:27:18.715Z,24.57
2023-02-16T04:29:45.393Z,25.47
2023-02-16T04:32:12.301Z,23.60
2023-02-16T04:34:38.974Z,25.13
2023-02-16T04:37:05.859Z,24.40
2023-02-16T04:39:32.877Z,25.67
2023-02-16T04:41:59.534Z,24.13
2023-02-16T04:44:26.180Z,24.37
2023-02-16T04:46:52.838Z,24.37
2023-02-16T04:49:19.440Z,24.87
2023-02-16T04:51:46.147Z,24.63
2023-02-16T04:54:12.807Z,25.03
2023-02-16T04:56:39.489Z,25.30
2023-02-16T04:59:06.089Z,25.70
2023-02-16T05:01:32.691Z,24.90
2023-02-16T05:03:59.319Z,24.13
2023-02-16T05:06:25.961Z,24.10
2023-02-16T05:08:52.592Z,26.00
2023-02-16T05:11:37.666Z,24.53
2023-02-16T05:14:23.185Z,23.90
2023-02-16T05:16:49.854Z,24.27
2023-02-16T05:19:18.539Z,25.37
2023-02-16T05:21:45.169Z,25.53
2023-02-16T05:24:12.153Z,24.43
2023-02-16T05:26:40.169Z,24.97
2023-02-16T05:29:07.072Z,24.90
2023-02-16T05:31:33.816Z,24.47
2023-02-16T05:34:00.472Z,25.80
2023-02-16T05:36:27.244Z,25.53
2023-02-16T05:38:53.891Z,26.13
2023-02-16T05:41:23.404Z,25.03
2023-02-16T05:43:58.774Z,26.97
2023-02-16T05:46:27.021Z,26.37
2023-02-16T05:48:54.251Z,26.37
2023-02-16T05:51:21.591Z,26.43
2023-02-16T05:53:48.586Z,25.37
2023-02-16T05:56:15.632Z,26.53
2023-02-16T05:58:42.376Z,25.60
2023-02-16T06:01:09.139Z,25.67
2023-02-16T06:03:36.340Z,27.43
2023-02-16T06:06:04.625Z,26.23
2023-02-16T06:08:32.541Z,27.37
2023-02-16T06:10:59.382Z,26.67
2023-02-16T06:13:26.650Z,26.47
2023-02-16T06:15:57.390Z,26.90
2023-02-16T06:18:24.899Z,27.80
2023-02-16T06:20:52.094Z,28.07
2023-02-16T06:23:18.782Z,27.93
2023-02-16T06:25:49.411Z,27.50
2023-02-16T06:28:16.017Z,27.07
2023-02-16T06:30:42.775Z,27.50
2023-02-16T06:33:09.557Z,27.87
2023-02-16T06:35:36.144Z,28.40
2023-02-16T06:38:02.785Z,29.00
2023-02-16T06:40:29.494Z,30.00
2023-02-16T06:42:56.138Z,29.13
2023-02-16T06:45:22.719Z,30.37
2023-02-16T06:47:49.406Z,28.70
2023-02-16T06:50:17.597Z,29.43
2023-02-16T06:52:44.275Z,29.47
2023-02-16T06:55:10.967Z,29.47
2023-02-16T06:57:37.624Z,29.13
2023-02-16T07:00:07.120Z,29.87
2023-02-16T07:02:34.247Z,30.83
2023-02-16T07:05:01.254Z,30.20
2023-02-16T07:07:27.931Z,30.10
2023-02-16T07:09:54.635Z,30.83
2023-02-16T07:12:21.293Z,29.07
2023-02-16T07:14:48.118Z,30.27
2023-02-16T07:17:14.871Z,30.43
2023-02-16T07:19:41.763Z,31.17
2023-02-16T07:22:08.333Z,31.77
2023-02-16T07:24:34.989Z,31.10
2023-02-16T07:27:01.664Z,32.03
2023-02-16T07:29:28.530Z,30.17
2023-02-16T07:31:56.461Z,33.53
2023-02-16T07:34:23.548Z,30.93
2023-02-16T07:36:50.210Z,31.97
2023-02-16T07:39:16.868Z,32.30
2023-02-16T07:41:43.536Z,32.93
2023-02-16T07:44:10.214Z,32.43
2023-02-16T07:46:36.874Z,32.50
2023-02-16T07:49:03.705Z,31.83
2023-02-16T07:51:31.605Z,33.63
2023-02-16T07:53:59.811Z,32.40
2023-02-16T07:56:28.962Z,32.53
2023-02-16T07:58:57.206Z,33.33
2023-02-16T08:01:24.940Z,33.37
2023-02-16T08:03:52.323Z,31.10
2023-02-16T08:06:19.477Z,31.50
2023-02-16T08:08:46.549Z,32.63
2023-02-16T08:11:18.822Z,32.17
2023-02-16T08:13:46.120Z,31.07
2023-02-16T08:16:18.264Z,32.73
2023-02-16T08:18:45.217Z,31.23
2023-02-16T08:21:17.665Z,33.40
2023-02-16T08:23:49.546Z,32.20
2023-02-16T08:26:17.850Z,32.17
2023-02-16T08:28:46.061Z,31.70
2023-02-16T08:31:20.911Z,31.63
2023-02-16T08:33:48.120Z,31.87
2023-02-16T08:36:23.479Z,33.40
2023-02-16T08:38:52.047Z,32.03
2023-02-16T08:41:20.488Z,30.37
2023-02-16T08:43:48.145Z,32.10
2023-02-16T08:46:15.946Z,32.10
2023-02-16T08:48:45.059Z,31.60
2023-02-16T08:51:19.486Z,30.53
2023-02-16T08:53:46.573Z,31.57
2023-02-16T08:56:14.634Z,30.93
2023-02-16T08:58:41.332Z,30.47
2023-02-16T09:01:08.795Z,30.80
2023-02-16T09:03:37.158Z,31.03
2023-02-16T09:06:05.948Z,31.00
2023-02-16T09:08:32.986Z,29.57
2023-02-16T09:11:07.688Z,30.37
2023-02-16T09:13:35.724Z,28.93
2023-02-16T09:16:08.086Z,30.23
2023-02-16T09:18:36.706Z,29.53
2023-02-16T09:21:06.709Z,30.67
2023-02-16T09:23:37.916Z,30.53
2023-02-16T09:26:08.036Z,30.30
2023-02-16T09:28:36.130Z,29.37
2023-02-16T09:31:10.082Z,28.17
2023-02-16T09:33:37.354Z,29.43
2023-02-16T09:36:06.933Z,29.07
2023-02-16T09:38:34.129Z,28.93
2023-02-16T09:41:48.452Z,29.80
2023-02-16T09:44:43.527Z,28.67
2023-02-16T09:47:24.469Z,29.47
2023-02-16T09:49:53.745Z,29.97
2023-02-16T09:52:36.280Z,28.77
2023-02-16T09:55:10.517Z,29.70
2023-02-16T09:57:46.389Z,27.77
2023-02-16T10:00:33.597Z,28.67
2023-02-16T10:03:32.157Z,30.23
2023-02-16T10:06:14.467Z,26.87
2023-02-16T10:08:46.836Z,28.83
2023-02-16T10:11:42.034Z,28.60
2023-02-16T10:14:13.547Z,27.27
2023-02-16T10:16:46.665Z,29.07
2023-02-16T10:19:35.301Z,29.20
2023-02-16T10:22:08.328Z,30.47
2023-02-16T10:24:49.720Z,29.93
2023-02-16T10:27:16.960Z,28.90
2023-02-16T10:29:43.813Z,29.60
2023-02-16T10:32:35.449Z,30.83
2023-02-16T10:35:13.575Z,30.67
2023-02-16T10:38:03.649Z,30.87
2023-02-16T10:40:45.308Z,28.20
2023-02-16T10:43:19.104Z,29.97
2023-02-16T10:45:54.869Z,30.63
2023-02-16T10:48:23.588Z,30.50
2023-02-16T10:51:12.586Z,30.60
2023-02-16T10:53:53.245Z,28.70
2023-02-16T10:56:25.522Z,30.47
2023-02-16T10:58:52.723Z,30.73
2023-02-16T11:01:21.765Z,30.43
2023-02-16T11:03:51.883Z,30.77
2023-02-16T11:06:25.460Z,30.73
2023-02-16T11:08:59.214Z,29.87
2023-02-16T11:11:28.274Z,30.67
2023-02-16T11:14:03.274Z,29.77
2023-02-16T11:16:30.330Z,31.83
2023-02-16T11:19:05.844Z,29.97
2023-02-16T11:21:46.127Z,30.43
2023-02-16T11:24:28.591Z,30.83
2023-02-16T11:27:06.750Z,30.73
2023-02-16T11:29:34.308Z,31.20
2023-02-16T11:32:09.237Z,31.37
2023-02-16T11:34:42.479Z,31.53
2023-02-16T11:37:28.549Z,30.03
2023-02-16T11:39:58.892Z,31.33
2023-02-16T11:42:44.121Z,32.03
2023-02-16T11:45:22.698Z,31.60
2023-02-16T11:47:56.562Z,32.37
2023-02-16T11:50:32.010Z,33.07
2023-02-16T11:53:16.323Z,32.57
2023-02-16T11:55:48.498Z,33.20
2023-02-16T11:58:27.380Z,32.07
2023-02-16T12:01:06.074Z,32.90
2023-02-16T12:04:09.703Z,33.23
2023-02-16T12:06:51.591Z,32.33
2023-02-16T12:09:48.720Z,33.67
2023-02-16T12:12:31.385Z,33.57
2023-02-16T12:15:25.944Z,33.90
2023-02-16T12:18:05.545Z,35.67
2023-02-16T12:21:10.918Z,34.53
2023-02-16T12:24:00.740Z,35.50
2023-02-16T12:26:46.604Z,35.90
2023-02-16T12:29:24.259Z,35.70
2023-02-16T12:32:23.820Z,36.67
2023-02-16T12:35:27.024Z,34.57
2023-02-16T12:38:25.335Z,37.10
2023-02-16T12:41:20.164Z,36.27
2023-02-16T12:44:02.870Z,37.43
2023-02-16T12:46:37.582Z,36.80
2023-02-16T12:49:13.200Z,36.23
2023-02-16T12:51:46.998Z,36.73
2023-02-16T12:54:16.431Z,38.13
2023-02-16T12:57:08.034Z,39.10
2023-02-16T12:59:41.706Z,38.83
2023-02-16T13:02:27.543Z,38.70
2023-02-16T13:05:08.621Z,38.57
2023-02-16T13:07:47.159Z,39.87
2023-02-16T13:10:20.368Z,38.93
2023-02-16T13:13:02.507Z,39.90
2023-02-16T13:15:36.992Z,37.90
2023-02-16T13:18:07.053Z,38.10
2023-02-16T13:20:33.790Z,38.10
2023-02-16T13:23:30.328Z,38.63
2023-02-16T13:26:34.716Z,39.77
2023-02-16T13:29:02.019Z,36.77
2023-02-16T13:31:54.511Z,30.07
2023-02-16T13:34:42.235Z,38.03
2023-02-16T13:37:30.306Z,35.70
2023-02-16T13:40:32.132Z,35.90
2023-02-16T13:43:19.288Z,35.90
2023-02-16T13:45:47.894Z,36.07
2023-02-16T13:48:22.427Z,35.43
2023-02-16T13:51:04.242Z,36.43
2023-02-16T13:53:39.129Z,35.10
2023-02-16T13:56:22.509Z,36.17
2023-02-16T13:58:52.047Z,36.23
2023-02-16T14:01:39.294Z,36.27
2023-02-16T14:04:26.199Z,36.53
2023-02-16T14:07:07.975Z,34.93
2023-02-16T14:09:37.722Z,35.13
2023-02-16T14:12:16.346Z,34.90
2023-02-16T14:14:43.005Z,35.93
2023-02-16T14:17:24.417Z,36.70
2023-02-16T14:20:24.797Z,35.57
2023-02-16T14:23:02.699Z,35.47
2023-02-16T14:25:33.873Z,35.60
2023-02-16T14:28:26.829Z,35.00
2023-02-16T14:30:56.185Z,26.70
2023-02-16T14:33:41.128Z,35.67
2023-02-16T14:36:16.591Z,34.67
2023-02-16T14:38:47.311Z,34.93
2023-02-16T14:41:23.050Z,35.40
2023-02-16T14:44:01.534Z,35.63
2023-02-16T14:46:55.767Z,34.73
2023-02-16T14:49:34.479Z,35.20
2023-02-16T14:52:42.882Z,34.57
2023-02-16T14:55:23.347Z,35.03
2023-02-16T14:58:15.912Z,34.00
2023-02-16T15:00:48.495Z,35.27
2023-02-16T15:03:21.602Z,34.00
2023-02-16T15:06:03.026Z,33.87
2023-02-16T15:08:36.166Z,34.43
2023-02-16T15:11:13.079Z,35.67
2023-02-16T15:13:40.355Z,32.40
2023-02-16T15:16:13.684Z,34.83
2023-02-16T15:18:46.292Z,34.20
2023-02-16T15:21:32.062Z,34.27
2023-02-16T15:24:01.580Z,35.77
2023-02-16T15:26:34.322Z,35.33
2023-02-16T15:29:19.647Z,34.70
2023-02-16T15:31:46.751Z,35.53
2023-02-16T15:34:26.233Z,34.27
2023-02-16T15:36:52.856Z,33.27
2023-02-16T15:39:41.309Z,36.13
2023-02-16T15:42:26.410Z,33.23
2023-02-16T15:44:53.231Z,35.20
2023-02-16T15:47:25.909Z,35.57
2023-02-16T15:49:54.048Z,35.57
2023-02-16T15:52:33.587Z,34.83
2023-02-16T15:55:02.463Z,35.37
2023-02-16T15:57:38.398Z,35.63
2023-02-16T16:00:19.311Z,34.90
2023-02-16T16:02:49.008Z,36.93
2023-02-16T16:05:28.523Z,35.03
2023-02-16T16:07:57.390Z,37.00
2023-02-16T16:10:36.438Z,36.33
2023-02-16T16:13:12.863Z,36.87
2023-02-16T16:15:46.490Z,38.03
2023-02-16T16:18:38.952Z,39.73
2023-02-16T16:21:24.863Z,40.67
2023-02-16T16:24:08.987Z,39.20
2023-02-16T16:26:52.993Z,40.87
2023-02-16T16:29:44.000Z,44.60
2023-02-16T16:32:21.228Z,45.63
2023-02-16T16:34:48.672Z,44.63
2023-02-16T16:37:35.574Z,45.40
2023-02-16T16:40:19.770Z,45.30
2023-02-16T16:43:04.566Z,40.20
2023-02-16T16:45:46.492Z,39.87
2023-02-16T16:48:36.331Z,37.57
2023-02-16T16:51:14.955Z,35.43
2023-02-16T16:53:51.740Z,33.33
2023-02-16T16:56:19.172Z,33.00
2023-02-16T16:58:51.273Z,31.97
2023-02-16T17:01:19.156Z,30.20
2023-02-16T17:03:45.922Z,30.57
2023-02-16T17:06:14.054Z,30.63
2023-02-16T17:08:43.973Z,29.27
2023-02-16T17:11:32.808Z,28.10
2023-02-16T17:14:10.167Z,27.97
2023-02-16T17:16:40.759Z,27.13
2023-02-16T17:19:07.435Z,28.17
2023-02-16T17:21:34.081Z,26.63
2023-02-16T17:24:00.687Z,27.30
2023-02-16T17:26:27.430Z,27.00
2023-02-16T17:28:54.264Z,26.50
2023-02-16T17:31:20.972Z,25.40
2023-02-16T17:33:47.622Z,25.07
2023-02-16T17:36:16.141Z,26.40
2023-02-16T17:38:43.440Z,25.90
2023-02-16T17:41:22.228Z,25.63
2023-02-16T17:43:49.328Z,27.07
2023-02-16T17:46:17.103Z,28.17
2023-02-16T17:48:44.133Z,25.63
2023-02-16T17:51:16.874Z,26.27
2023-02-16T17:53:44.850Z,26.60
2023-02-16T17:56:13.914Z,25.83
2023-02-16T17:58:40.986Z,26.73
2023-02-16T18:01:09.678Z,26.57
2023-02-16T18:03:36.338Z,25.83
2023-02-16T18:06:03.147Z,26.03
2023-02-16T18:08:29.881Z,26.50
2023-02-16T18:11:01.873Z,25.30
2023-02-16T18:13:29.908Z,27.93
2023-02-16T18:15:57.258Z,26.13
2023-02-16T18:18:24.169Z,27.93
2023-02-16T18:20:50.746Z,27.30
2023-02-16T18:23:17.375Z,27.63
2023-02-16T18:25:44.108Z,27.13
2023-02-16T18:28:14.991Z,26.53
2023-02-16T18:30:41.971Z,27.37
2023-02-16T18:33:08.606Z,27.17
2023-02-16T18:35:36.475Z,26.57
2023-02-16T18:38:03.546Z,27.83
2023-02-16T18:40:30.419Z,25.77
2023-02-16T18:42:57.092Z,27.07
2023-02-16T18:45:25.553Z,27.93
2023-02-16T18:47:52.341Z,26.07
2023-02-16T18:50:19.057Z,26.03
2023-02-16T18:52:46.037Z,27.17
2023-02-16T18:55:13.173Z,26.67
2023-02-16T18:57:39.847Z,25.23
2023-02-16T19:00:08.607Z,27.47
2023-02-16T19:02:35.533Z,26.63
2023-02-16T19:05:02.674Z,27.63
2023-02-16T19:07:29.409Z,27.03
2023-02-16T19:09:56.045Z,28.40
2023-02-16T19:12:22.698Z,27.87
2023-02-16T19:14:49.413Z,28.90
2023-02-16T19:17:16.139Z,28.50
2023-02-16T19:19:42.850Z,30.70
2023-02-16T19:22:09.717Z,29.03
2023-02-16T19:24:36.739Z,29.90
2023-02-16T19:27:03.440Z,28.37
2023-02-16T19:29:30.106Z,29.70
2023-02-16T19:31:56.883Z,31.17
2023-02-16T19:34:23.529Z,32.33
2023-02-16T19:36:50.986Z,30.53
2023-02-16T19:39:18.101Z,29.43
2023-02-16T19:41:44.765Z,31.00
2023-02-16T19:44:14.069Z,31.03
2023-02-16T19:46:41.814Z,31.07
2023-02-16T19:49:09.247Z,32.50
2023-02-16T19:51:35.859Z,32.03
2023-02-16T19:54:02.548Z,31.50
2023-02-16T19:56:29.225Z,33.27
2023-02-16T19:58:59.037Z,32.80
2023-02-16T20:01:28.086Z,32.27
2023-02-16T20:03:56.654Z,31.93
2023-02-16T20:06:43.643Z,32.30
2023-02-16T20:09:13.453Z,35.33
2023-02-16T20:11:40.808Z,31.70
2023-02-16T20:14:08.553Z,33.53
2023-02-16T20:16:35.361Z,34.57
2023-02-16T20:19:02.332Z,33.50
2023-02-16T20:21:29.845Z,35.27
2023-02-16T20:24:02.551Z,33.77
2023-02-16T20:26:39.246Z,35.13
2023-02-16T20:29:08.449Z,33.70
2023-02-16T20:31:51.012Z,33.37
2023-02-16T20:34:18.068Z,34.37
2023-02-16T20:36:44.876Z,35.07
2023-02-16T20:39:11.483Z,35.33
2023-02-16T20:41:38.389Z,35.90
2023-02-16T20:44:05.919Z,36.13
2023-02-16T20:46:32.787Z,36.47
2023-02-16T20:48:59.565Z,36.27
2023-02-16T20:51:26.505Z,36.60
2023-02-16T20:53:53.111Z,37.50
2023-02-16T20:56:23.014Z,39.90
2023-02-16T20:58:52.212Z,40.20
2023-02-16T21:01:36.975Z,39.93
2023-02-16T21:04:04.575Z,39.93
2023-02-16T21:06:31.264Z,38.97
2023-02-16T21:08:58.293Z,40.73
2023-02-16T21:11:25.578Z,39.57
2023-02-16T21:13:52.560Z,40.63
2023-02-16T21:16:19.216Z,38.53
2023-02-16T21:18:45.938Z,39.23
2023-02-16T21:21:15.453Z,38.60
2023-02-16T21:23:48.203Z,39.23
2023-02-16T21:26:16.083Z,37.60
2023-02-16T21:28:42.881Z,37.43
2023-02-16T21:31:12.992Z,35.70
2023-02-16T21:33:40.099Z,35.57
2023-02-16T21:36:13.815Z,33.83
2023-02-16T21:38:41.885Z,33.73
2023-02-16T21:41:25.162Z,33.13
2023-02-16T21:44:14.094Z,32.47
2023-02-16T21:46:46.168Z,31.87
2023-02-16T21:49:21.535Z,33.43
2023-02-16T21:51:48.378Z,33.87
2023-02-16T21:54:17.851Z,32.77
2023-02-16T21:56:51.306Z,31.43
2023-02-16T21:59:19.789Z,32.60
2023-02-16T22:01:50.804Z,30.00
2023-02-16T22:04:21.597Z,30.80
2023-02-16T22:06:50.355Z,30.97
2023-02-16T22:09:22.189Z,29.43
2023-02-16T22:11:49.347Z,29.33
2023-02-16T22:14:15.960Z,29.27
2023-02-16T22:16:45.029Z,27.77
2023-02-16T22:19:14.198Z,28.97
2023-02-16T22:21:42.923Z,27.53
2023-02-16T22:24:13.437Z,27.10
2023-02-16T22:26:40.350Z,28.00
2023-02-16T22:29:07.898Z,27.50
2023-02-16T22:31:35.680Z,27.63
2023-02-16T22:34:07.522Z,25.33
2023-02-16T22:36:36.448Z,24.57
2023-02-16T22:39:03.760Z,25.83
2023-02-16T22:41:30.451Z,24.00
2023-02-16T22:43:59.556Z,24.13
2023-02-16T22:46:27.309Z,24.90
2023-02-16T22:48:55.275Z,23.63
2023-02-16T22:51:22.354Z,23.17
2023-02-16T22:53:49.106Z,22.23
2023-02-16T22:56:18.089Z,21.93
2023-02-16T22:58:45.497Z,21.63
2023-02-16T23:01:14.900Z,21.63
2023-02-16T23:03:42.663Z,20.87
2023-02-16T23:06:18.523Z,21.50
2023-02-16T23:08:46.383Z,21.53
2023-02-16T23:11:13.579Z,21.17
2023-02-16T23:13:40.177Z,22.33
2023-02-16T23:16:11.226Z,21.03
2023-02-16T23:18:38.276Z,21.50
2023-02-16T23:21:06.965Z,21.93
2023-02-16T23:23:33.698Z,22.30
2023-02-16T23:26:00.360Z,21.97
2023-02-16T23:28:26.973Z,23.43
2023-02-16T23:30:56.321Z,21.43
2023-02-16T23:33:23.579Z,22.20
2023-02-16T23:35:50.524Z,21.33
2023-02-16T23:38:18.281Z,21.30
2023-02-16T23:40:44.959Z,21.07
2023-02-16T23:43:11.594Z,20.33
2023-02-16T23:45:38.739Z,19.93
2023-02-16T23:48:05.518Z,20.27
2023-02-16T23:50:32.137Z,21.17
2023-02-16T23:52:58.730Z,20.20
2023-02-16T23:55:25.396Z,19.73
2023-02-16T23:57:52.041Z,19.83
